createdAt,value
2022-09-17T00:01:57.472Z,3.80
2022-09-17T00:04:25.000Z,3.80
2022-09-17T00:06:52.003Z,3.60
2022-09-17T00:09:21.422Z,4.20
2022-09-17T00:11:48.377Z,4.13
2022-09-17T00:14:17.880Z,3.90
2022-09-17T00:16:49.306Z,3.97
2022-09-17T00:19:22.994Z,3.97
2022-09-17T00:21:56.191Z,4.40
2022-09-17T00:24:23.183Z,4.50
2022-09-17T00:26:50.668Z,4.10
2022-09-17T00:29:17.913Z,4.83
2022-09-17T00:31:45.005Z,5.27
2022-09-17T00:34:12.204Z,4.53
2022-09-17T00:36:41.109Z,5.13
2022-09-17T00:39:12.181Z,5.23
2022-09-17T00:41:39.754Z,5.13
2022-09-17T00:45:00.035Z,3.63
2022-09-17T00:47:46.018Z,4.37
2022-09-17T00:50:39.523Z,4.10
2022-09-17T00:53:16.491Z,4.13
2022-09-17T00:56:26.137Z,4.70
2022-09-17T00:58:56.403Z,4.13
2022-09-17T01:01:23.918Z,3.83
2022-09-17T01:03:51.030Z,3.90
2022-09-17T01:06:55.770Z,5.13
2022-09-17T01:10:21.456Z,4.77
2022-09-17T01:13:31.757Z,5.37
2022-09-17T01:16:28.856Z,5.07
2022-09-17T01:19:43.960Z,5.50
2022-09-17T01:22:34.363Z,5.40
2022-09-17T01:25:28.593Z,5.03
2022-09-17T01:28:33.545Z,4.70
2022-09-17T01:31:49.096Z,3.53
2022-09-17T01:34:59.036Z,3.27
2022-09-17T01:38:01.486Z,3.47
2022-09-17T01:40:56.820Z,3.40
2022-09-17T01:43:46.571Z,3.43
2022-09-17T01:46:24.902Z,2.87
2022-09-17T01:49:05.200Z,2.90
2022-09-17T01:51:49.246Z,3.07
2022-09-17T01:54:35.574Z,3.07
2022-09-17T01:57:33.711Z,3.20
2022-09-17T02:00:19.260Z,2.80
2022-09-17T02:03:13.366Z,3.07
2022-09-17T02:06:03.144Z,2.57
2022-09-17T02:09:21.197Z,3.23
2022-09-17T02:11:56.641Z,3.00
2022-09-17T02:14:47.404Z,3.20
2022-09-17T02:17:30.375Z,3.33
2022-09-17T02:19:57.851Z,3.20
2022-09-17T02:22:42.319Z,2.70
2022-09-17T02:25:39.119Z,3.33
2022-09-17T02:28:59.718Z,3.20
2022-09-17T02:31:27.097Z,3.53
2022-09-17T02:34:02.181Z,3.13
2022-09-17T02:36:32.138Z,2.80
2022-09-17T02:39:02.691Z,3.40
2022-09-17T02:41:51.764Z,3.90
2022-09-17T02:44:53.144Z,3.50
2022-09-17T02:48:12.348Z,3.40
2022-09-17T02:51:35.245Z,4.13
2022-09-17T02:54:39.732Z,3.20
2022-09-17T02:57:41.582Z,3.77
2022-09-17T03:00:22.337Z,3.30
2022-09-17T03:03:05.869Z,3.40
2022-09-17T03:05:38.816Z,4.20
2022-09-17T03:08:12.462Z,3.77
2022-09-17T03:10:40.141Z,4.27
2022-09-17T03:13:07.291Z,3.17
2022-09-17T03:15:34.223Z,3.27
2022-09-17T03:18:01.795Z,2.87
2022-09-17T03:20:28.758Z,3.10
2022-09-17T03:22:55.875Z,3.40
2022-09-17T03:25:22.875Z,4.00
2022-09-17T03:27:50.016Z,3.17
2022-09-17T03:30:17.046Z,2.93
2022-09-17T03:32:44.037Z,3.70
2022-09-17T03:35:11.028Z,4.07
2022-09-17T03:37:38.079Z,4.00
2022-09-17T03:40:06.527Z,3.90
2022-09-17T03:42:33.534Z,4.33
2022-09-17T03:45:00.495Z,3.90
2022-09-17T03:47:27.438Z,3.53
2022-09-17T03:49:54.412Z,3.70
2022-09-17T03:52:21.388Z,3.37
2022-09-17T03:54:51.070Z,3.43
2022-09-17T03:57:18.013Z,3.80
2022-09-17T03:59:45.119Z,4.07
2022-09-17T04:02:12.163Z,3.70
2022-09-17T04:04:44.133Z,3.03
2022-09-17T04:07:11.157Z,3.30
2022-09-17T04:09:38.604Z,3.50
2022-09-17T04:12:05.694Z,3.10
2022-09-17T04:14:46.551Z,2.87
2022-09-17T04:17:18.359Z,2.67
2022-09-17T04:19:48.822Z,2.47
2022-09-17T04:22:15.780Z,3.30
2022-09-17T04:24:43.533Z,2.70
2022-09-17T04:27:10.576Z,2.00
2022-09-17T04:29:41.155Z,2.07
2022-09-17T04:32:19.251Z,2.70
2022-09-17T04:34:46.921Z,2.77
2022-09-17T04:37:13.919Z,1.90
2022-09-17T04:39:40.964Z,2.30
2022-09-17T04:42:07.959Z,2.53
2022-09-17T04:44:34.925Z,2.50
2022-09-17T04:47:05.547Z,2.93
2022-09-17T04:49:32.946Z,2.20
2022-09-17T04:51:59.932Z,2.80
2022-09-17T04:54:26.904Z,2.60
2022-09-17T04:56:54.031Z,3.03
2022-09-17T04:59:21.362Z,2.70
2022-09-17T05:01:52.324Z,2.80
2022-09-17T05:04:19.329Z,3.07
2022-09-17T05:06:46.372Z,2.90
2022-09-17T05:09:14.964Z,2.20
2022-09-17T05:11:42.272Z,2.50
2022-09-17T05:14:09.304Z,3.30
2022-09-17T05:16:36.351Z,2.70
2022-09-17T05:19:04.237Z,2.43
2022-09-17T05:21:31.299Z,3.27
2022-09-17T05:23:58.428Z,2.90
2022-09-17T05:26:49.434Z,3.30
2022-09-17T05:29:16.409Z,3.10
2022-09-17T05:31:43.743Z,2.97
2022-09-17T05:34:10.817Z,2.90
2022-09-17T05:36:38.118Z,2.50
2022-09-17T05:39:05.105Z,3.00
2022-09-17T05:41:32.110Z,4.23
2022-09-17T05:43:59.108Z,2.87
2022-09-17T05:46:26.189Z,2.50
2022-09-17T05:48:57.491Z,2.97
2022-09-17T05:51:24.948Z,2.77
2022-09-17T05:53:54.423Z,2.70
2022-09-17T05:56:21.941Z,2.87
2022-09-17T05:58:49.188Z,3.13
2022-09-17T06:01:16.412Z,2.50
2022-09-17T06:03:43.396Z,2.63
2022-09-17T06:06:10.991Z,2.90
2022-09-17T06:08:38.084Z,2.97
2022-09-17T06:11:09.379Z,1.97
2022-09-17T06:13:36.614Z,3.13
2022-09-17T06:16:04.663Z,3.50
2022-09-17T06:18:32.360Z,2.90
2022-09-17T06:21:03.030Z,3.50
2022-09-17T06:23:37.319Z,2.90
2022-09-17T06:26:08.837Z,3.97
2022-09-17T06:28:48.782Z,3.60
2022-09-17T06:31:16.230Z,3.27
2022-09-17T06:33:43.254Z,2.53
2022-09-17T06:36:14.593Z,3.03
2022-09-17T06:38:42.529Z,3.50
2022-09-17T06:41:09.804Z,2.73
2022-09-17T06:43:36.879Z,3.37
2022-09-17T06:46:06.571Z,3.03
2022-09-17T06:48:36.400Z,3.17
2022-09-17T06:51:10.906Z,3.43
2022-09-17T06:53:39.608Z,2.90
2022-09-17T06:56:08.869Z,2.53
2022-09-17T06:58:37.440Z,3.47
2022-09-17T07:01:29.835Z,2.70
2022-09-17T07:03:57.274Z,2.80
2022-09-17T07:06:25.031Z,2.97
2022-09-17T07:08:55.265Z,2.87
2022-09-17T07:11:25.335Z,3.30
2022-09-17T07:13:56.284Z,3.17
2022-09-17T07:16:24.142Z,3.40
2022-09-17T07:18:51.257Z,3.07
2022-09-17T07:21:18.703Z,3.20
2022-09-17T07:23:46.562Z,3.30
2022-09-17T07:26:18.622Z,3.57
2022-09-17T07:28:46.042Z,3.30
2022-09-17T07:31:16.718Z,3.17
2022-09-17T07:33:45.430Z,3.10
2022-09-17T07:36:17.791Z,3.07
2022-09-17T07:38:45.070Z,3.07
2022-09-17T07:41:17.767Z,2.93
2022-09-17T07:43:45.661Z,2.97
2022-09-17T07:46:23.503Z,2.93
2022-09-17T07:48:51.768Z,2.50
2022-09-17T07:51:23.377Z,3.10
2022-09-17T07:53:57.941Z,3.43
2022-09-17T07:56:27.938Z,2.70
2022-09-17T07:58:55.652Z,2.90
2022-09-17T08:01:22.861Z,2.70
2022-09-17T08:03:53.831Z,2.80
2022-09-17T08:06:26.870Z,2.13
2022-09-17T08:08:58.512Z,2.90
2022-09-17T08:11:54.562Z,2.57
2022-09-17T08:14:21.518Z,2.83
2022-09-17T08:16:49.865Z,2.90
2022-09-17T08:19:18.993Z,3.23
2022-09-17T08:21:46.088Z,2.17
2022-09-17T08:24:13.110Z,2.23
2022-09-17T08:26:41.160Z,2.47
2022-09-17T08:29:14.931Z,2.70
2022-09-17T08:31:42.223Z,2.83
2022-09-17T08:34:10.025Z,2.87
2022-09-17T08:36:40.376Z,2.37
2022-09-17T08:39:13.149Z,2.40
2022-09-17T08:41:53.046Z,2.70
2022-09-17T08:45:11.651Z,2.67
2022-09-17T08:47:45.664Z,2.33
2022-09-17T08:50:34.723Z,2.63
2022-09-17T08:53:50.063Z,1.83
2022-09-17T08:56:19.497Z,1.77
2022-09-17T08:59:35.835Z,2.17
2022-09-17T09:02:56.710Z,1.57
2022-09-17T09:05:41.917Z,1.60
2022-09-17T09:08:44.874Z,1.33
2022-09-17T09:11:18.283Z,1.70
2022-09-17T09:13:52.526Z,1.67
2022-09-17T09:16:26.146Z,2.37
2022-09-17T09:19:25.070Z,2.00
2022-09-17T09:22:40.578Z,2.10
2022-09-17T09:25:31.034Z,1.50
2022-09-17T09:28:48.993Z,2.43
2022-09-17T09:31:57.033Z,1.90
2022-09-17T09:34:29.639Z,1.43
2022-09-17T09:37:39.217Z,1.83
2022-09-17T09:41:13.227Z,1.70
2022-09-17T09:44:03.990Z,2.20
2022-09-17T09:47:03.958Z,1.53
2022-09-17T09:50:43.199Z,2.20
2022-09-17T09:53:47.970Z,2.27
2022-09-17T09:56:59.417Z,1.90
2022-09-17T09:59:27.097Z,3.20
2022-09-17T10:01:54.327Z,1.93
2022-09-17T10:04:28.394Z,1.77
2022-09-17T10:07:11.193Z,1.53
2022-09-17T10:09:45.302Z,1.37
2022-09-17T10:12:12.086Z,1.93
2022-09-17T10:14:46.232Z,1.43
2022-09-17T10:17:25.406Z,1.20
2022-09-17T10:20:12.043Z,1.60
2022-09-17T10:22:42.665Z,1.50
2022-09-17T10:25:32.120Z,1.50
2022-09-17T10:28:21.221Z,1.50
2022-09-17T10:31:10.128Z,1.40
2022-09-17T10:33:59.273Z,1.47
2022-09-17T10:36:45.758Z,2.00
2022-09-17T10:39:44.216Z,1.60
2022-09-17T10:42:17.837Z,2.23
2022-09-17T10:44:57.711Z,2.07
2022-09-17T10:47:42.605Z,1.90
2022-09-17T10:50:29.378Z,1.90
2022-09-17T10:53:02.017Z,1.30
2022-09-17T10:55:51.019Z,1.63
2022-09-17T10:59:16.456Z,1.27
2022-09-17T11:02:17.052Z,1.80
2022-09-17T11:05:31.359Z,1.60
2022-09-17T11:08:24.519Z,1.33
2022-09-17T11:11:09.069Z,1.27
2022-09-17T11:14:06.926Z,1.50
2022-09-17T11:16:51.783Z,1.60
2022-09-17T11:19:40.603Z,1.63
2022-09-17T11:22:28.722Z,1.77
2022-09-17T11:26:08.269Z,1.50
2022-09-17T11:28:58.380Z,1.80
2022-09-17T11:31:54.087Z,1.63
2022-09-17T11:34:37.697Z,1.73
2022-09-17T11:37:33.725Z,2.20
2022-09-17T11:40:15.683Z,1.30
2022-09-17T11:42:54.290Z,1.60
2022-09-17T11:45:38.313Z,1.43
2022-09-17T11:48:18.327Z,1.43
2022-09-17T11:51:19.569Z,1.73
2022-09-17T11:54:19.135Z,1.13
2022-09-17T11:57:06.476Z,1.00
2022-09-17T12:00:03.153Z,1.10
2022-09-17T12:03:19.036Z,1.17
2022-09-17T12:05:59.962Z,1.10
2022-09-17T12:09:01.704Z,1.00
2022-09-17T12:12:37.900Z,0.90
2022-09-17T12:15:17.888Z,1.50
2022-09-17T12:18:43.489Z,0.95
2022-09-17T12:21:15.159Z,0.70
2022-09-17T12:24:20.489Z,0.70
2022-09-17T12:27:58.221Z,1.00
2022-09-17T12:30:33.153Z,1.00
2022-09-17T12:33:50.092Z,0.80
2022-09-17T12:36:40.907Z,1.23
2022-09-17T12:39:58.953Z,0.80
2022-09-17T12:42:40.508Z,0.93
2022-09-17T12:45:31.581Z,0.30
2022-09-17T12:49:03.744Z,0.30
2022-09-17T12:52:12.030Z,0.80
2022-09-17T12:55:13.853Z,0.40
2022-09-17T12:58:14.053Z,0.50
2022-09-17T13:00:53.657Z,0.60
2022-09-17T13:03:32.822Z,0.80
2022-09-17T13:06:56.179Z,0.70
2022-09-17T13:10:15.470Z,0.57
2022-09-17T13:12:50.511Z,0.50
2022-09-17T13:16:05.034Z,0.63
2022-09-17T13:19:05.633Z,0.55
2022-09-17T13:21:55.684Z,0.88
2022-09-17T13:24:27.016Z,0.85
2022-09-17T13:26:55.179Z,0.73
2022-09-17T13:29:43.949Z,0.60
2022-09-17T13:32:33.632Z,1.05
2022-09-17T13:35:15.223Z,1.00
2022-09-17T13:38:03.491Z,1.15
2022-09-17T13:40:37.351Z,0.70
2022-09-17T13:43:04.189Z,1.15
2022-09-17T13:45:33.839Z,0.85
2022-09-17T13:48:11.408Z,0.88
2022-09-17T13:50:44.422Z,0.68
2022-09-17T13:53:14.437Z,1.08
2022-09-17T13:56:01.115Z,0.60
2022-09-17T13:58:36.517Z,0.57
2022-09-17T14:01:13.581Z,1.00
2022-09-17T14:03:46.572Z,0.75
2022-09-17T14:06:18.036Z,0.63
2022-09-17T14:08:45.045Z,0.95
2022-09-17T14:11:33.450Z,0.80
2022-09-17T14:14:06.394Z,0.70
2022-09-17T14:16:50.277Z,1.15
2022-09-17T14:19:29.452Z,0.80
2022-09-17T14:22:00.598Z,0.95
2022-09-17T14:24:52.389Z,0.80
2022-09-17T14:27:56.777Z,0.85
2022-09-17T14:30:32.817Z,0.50
2022-09-17T14:33:26.114Z,1.05
2022-09-17T14:36:08.124Z,0.90
2022-09-17T14:38:44.818Z,0.85
2022-09-17T14:41:11.719Z,0.75
2022-09-17T14:44:06.755Z,0.70
2022-09-17T14:46:49.919Z,0.68
2022-09-17T14:49:35.392Z,0.60
2022-09-17T14:52:19.850Z,0.73
2022-09-17T14:54:46.841Z,0.95
2022-09-17T14:57:29.305Z,0.60
2022-09-17T15:00:00.562Z,0.52
2022-09-17T15:02:43.158Z,0.75
2022-09-17T15:05:42.439Z,0.60
2022-09-17T15:08:22.173Z,0.43
2022-09-17T15:11:06.752Z,0.40
2022-09-17T15:13:51.047Z,0.20
2022-09-17T15:16:27.984Z,0.20
2022-09-17T15:18:58.690Z,0.20
2022-09-17T15:21:34.474Z,0.20
2022-09-17T15:24:41.832Z,0.20
2022-09-17T15:27:22.293Z,0.30
2022-09-17T15:29:57.730Z,0.20
2022-09-17T15:32:25.150Z,0.30
2022-09-17T15:35:30.645Z,0.10
2022-09-17T15:38:28.070Z,0.10
2022-09-17T15:40:55.668Z,0.10
2022-09-17T15:43:33.466Z,0.20
2022-09-17T15:46:32.566Z,0.30
2022-09-17T15:49:04.248Z,0.27
2022-09-17T15:51:37.320Z,0.30
2022-09-17T15:54:07.074Z,0.40
2022-09-17T15:56:40.207Z,0.20
2022-09-17T15:59:26.765Z,0.17
2022-09-17T16:01:57.322Z,0.40
2022-09-17T16:04:34.490Z,0.10
2022-09-17T16:07:07.801Z,0.50
2022-09-17T16:09:47.936Z,0.30
2022-09-17T16:12:26.054Z,0.30
2022-09-17T16:14:57.235Z,0.23
2022-09-17T16:17:33.236Z,0.27
2022-09-17T16:20:06.479Z,0.30
2022-09-17T16:22:33.611Z,0.30
2022-09-17T16:25:00.567Z,0.33
2022-09-17T16:27:33.012Z,0.30
2022-09-17T16:30:09.424Z,0.30
2022-09-17T16:32:36.376Z,0.23
2022-09-17T16:35:03.470Z,0.50
2022-09-17T16:37:30.471Z,0.33
2022-09-17T16:39:57.450Z,0.40
2022-09-17T16:42:24.456Z,0.40
2022-09-17T16:44:51.382Z,0.40
2022-09-17T16:47:18.465Z,0.87
2022-09-17T16:49:45.389Z,0.40
2022-09-17T16:52:12.338Z,0.50
2022-09-17T16:54:39.393Z,0.30
2022-09-17T16:57:06.325Z,0.50
2022-09-17T16:59:33.378Z,0.40
2022-09-17T17:02:00.589Z,0.40
2022-09-17T17:04:27.543Z,0.70
2022-09-17T17:06:54.484Z,0.40
2022-09-17T17:09:21.590Z,0.30
2022-09-17T17:11:48.548Z,0.47
2022-09-17T17:14:15.559Z,0.70
2022-09-17T17:16:43.584Z,0.33
2022-09-17T17:19:10.973Z,0.47
2022-09-17T17:21:38.113Z,0.40
2022-09-17T17:24:06.705Z,0.43
2022-09-17T17:26:34.576Z,0.60
2022-09-17T17:29:02.846Z,0.43
2022-09-17T17:31:33.131Z,0.50
2022-09-17T17:34:00.219Z,0.30
2022-09-17T17:36:27.939Z,0.30
2022-09-17T17:38:59.985Z,0.30
2022-09-17T17:41:28.570Z,0.43
2022-09-17T17:43:57.691Z,0.40
2022-09-17T17:46:25.129Z,0.50
2022-09-17T17:48:52.406Z,0.37
2022-09-17T17:51:19.523Z,0.50
2022-09-17T17:53:46.854Z,0.57
2022-09-17T17:56:14.165Z,0.53
2022-09-17T17:58:41.761Z,0.40
2022-09-17T18:01:22.315Z,0.50
2022-09-17T18:03:49.625Z,0.50
2022-09-17T18:06:16.832Z,0.30
2022-09-17T18:08:44.702Z,0.53
2022-09-17T18:11:12.372Z,0.50
2022-09-17T18:13:40.329Z,0.80
2022-09-17T18:16:11.789Z,0.60
2022-09-17T18:18:45.402Z,0.60
2022-09-17T18:21:22.782Z,0.50
2022-09-17T18:23:51.000Z,0.53
2022-09-17T18:26:25.488Z,0.60
2022-09-17T18:28:53.507Z,0.60
2022-09-17T18:31:28.257Z,1.00
2022-09-17T18:34:03.551Z,0.83
2022-09-17T18:36:34.085Z,0.90
2022-09-17T18:41:52.634Z,0.50
2022-09-17T18:44:21.672Z,0.47
2022-09-17T18:46:50.117Z,0.40
2022-09-17T18:49:17.418Z,0.37
2022-09-17T18:51:44.417Z,0.40
2022-09-17T18:54:14.841Z,0.50
2022-09-17T18:56:42.423Z,0.60
2022-09-17T18:59:10.828Z,0.50
2022-09-17T19:01:38.034Z,0.40
2022-09-17T19:04:07.478Z,0.43
2022-09-17T19:06:35.057Z,0.37
2022-09-17T19:09:04.698Z,0.70
2022-09-17T19:11:31.734Z,0.50
2022-09-17T19:13:58.923Z,0.60
2022-09-17T19:16:26.084Z,0.63
2022-09-17T19:18:53.141Z,0.40
2022-09-17T19:21:21.786Z,0.73
2022-09-17T19:23:51.909Z,1.33
2022-09-17T19:26:26.294Z,0.60
2022-09-17T19:28:57.712Z,0.43
2022-09-17T19:31:25.616Z,0.60
2022-09-17T19:33:52.875Z,0.67
2022-09-17T19:36:21.175Z,0.70
2022-09-17T19:38:48.936Z,0.60
2022-09-17T19:41:20.612Z,0.40
2022-09-17T19:43:50.278Z,0.70
2022-09-17T19:46:24.105Z,0.53
2022-09-17T19:48:55.860Z,0.60
2022-09-17T19:51:26.390Z,0.80
2022-09-17T19:53:53.482Z,0.80
2022-09-17T19:56:24.905Z,0.77
2022-09-17T19:58:52.495Z,1.20
2022-09-17T20:01:20.402Z,0.80
2022-09-17T20:03:47.809Z,0.70
2022-09-17T20:06:18.994Z,0.87
2022-09-17T20:08:51.087Z,0.97
2022-09-17T20:11:21.022Z,1.10
2022-09-17T20:13:48.407Z,0.60
2022-09-17T20:16:21.594Z,1.40
2022-09-17T20:18:50.270Z,0.87
2022-09-17T20:21:23.856Z,0.47
2022-09-17T20:23:51.139Z,0.70
2022-09-17T20:26:19.004Z,0.80
2022-09-17T20:28:48.038Z,0.80
2022-09-17T20:31:28.482Z,0.80
2022-09-17T20:34:02.357Z,0.80
2022-09-17T20:36:33.791Z,0.73
2022-09-17T20:39:21.946Z,0.93
2022-09-17T20:41:47.738Z,0.90
2022-09-17T20:44:14.705Z,0.70
2022-09-17T20:46:41.766Z,0.90
2022-09-17T20:49:08.922Z,0.90
2022-09-17T20:51:35.962Z,1.40
2022-09-17T20:54:03.354Z,1.20
2022-09-17T20:56:33.723Z,0.90
2022-09-17T20:59:17.679Z,1.03
2022-09-17T21:01:49.484Z,0.80
2022-09-17T21:04:22.012Z,0.83
2022-09-17T21:06:53.243Z,0.80
2022-09-17T21:09:20.899Z,1.07
2022-09-17T21:11:49.271Z,1.20
2022-09-17T21:14:18.121Z,1.10
2022-09-17T21:16:48.908Z,1.00
2022-09-17T21:19:16.582Z,0.80
2022-09-17T21:21:44.577Z,1.10
2022-09-17T21:24:12.488Z,1.30
2022-09-17T21:26:39.638Z,1.00
2022-09-17T21:29:06.660Z,1.20
2022-09-17T21:31:36.815Z,0.90
2022-09-17T21:34:09.530Z,1.00
2022-09-17T21:36:39.281Z,1.20
2022-09-17T21:39:14.463Z,1.17
2022-09-17T21:41:43.692Z,1.33
2022-09-17T21:44:12.784Z,1.77
2022-09-17T21:46:41.834Z,1.90
2022-09-17T21:49:09.597Z,1.50
2022-09-17T21:51:42.961Z,1.60
2022-09-17T21:54:16.717Z,1.70
2022-09-17T21:56:45.930Z,1.20
2022-09-17T21:59:15.846Z,1.57
2022-09-17T22:01:50.588Z,1.53
2022-09-17T22:04:22.071Z,1.70
2022-09-17T22:06:50.331Z,1.90
2022-09-17T22:09:24.693Z,1.97
2022-09-17T22:11:53.286Z,1.43
2022-09-17T22:14:24.141Z,1.70
2022-09-17T22:16:56.926Z,1.70
2022-09-17T22:19:25.530Z,1.50
2022-09-17T22:21:55.601Z,1.87
2022-09-17T22:24:24.155Z,1.80
2022-09-17T22:26:57.789Z,1.57
2022-09-17T22:29:29.068Z,1.43
2022-09-17T22:31:57.227Z,1.60
2022-09-17T22:34:25.777Z,1.50
2022-09-17T22:36:52.775Z,1.63
2022-09-17T22:39:23.084Z,1.90
2022-09-17T22:41:50.086Z,1.87
2022-09-17T22:44:19.826Z,1.83
2022-09-17T22:46:50.287Z,1.77
2022-09-17T22:49:18.896Z,2.13
2022-09-17T22:51:49.257Z,1.77
2022-09-17T22:54:18.275Z,1.90
2022-09-17T22:56:47.312Z,2.30
2022-09-17T22:59:14.425Z,1.97
2022-09-17T23:01:41.856Z,2.00
2022-09-17T23:04:09.694Z,1.90
2022-09-17T23:06:41.925Z,2.20
2022-09-17T23:09:11.111Z,2.13
2022-09-17T23:11:39.820Z,1.90
2022-09-17T23:14:11.920Z,2.40
2022-09-17T23:16:46.491Z,1.77
2022-09-17T23:19:19.910Z,1.67
2022-09-17T23:21:47.223Z,2.37
2022-09-17T23:24:21.657Z,2.40
2022-09-17T23:26:50.218Z,2.20
2022-09-17T23:29:17.818Z,2.23
2022-09-17T23:31:44.810Z,2.80
2022-09-17T23:34:11.926Z,2.70
2022-09-17T23:36:40.149Z,2.33
2022-09-17T23:39:11.562Z,2.03
2022-09-17T23:41:44.776Z,2.27
2022-09-17T23:44:15.778Z,2.60
2022-09-17T23:46:44.812Z,2.77
2022-09-17T23:49:13.807Z,2.40
2022-09-17T23:51:41.118Z,2.17
2022-09-17T23:54:08.296Z,2.80
2022-09-17T23:56:36.066Z,2.47
2022-09-17T23:59:07.219Z,2.70
